sensor_id;sensor_type;location;lat;lon;timestamp;temperature;humidity
38183;DHT22;23991;52.430;10.586;2023-04-24T00:01:33;15.30;65.40
38183;DHT22;23991;52.430;10.586;2023-04-24T00:03:59;15.30;65.80
38183;DHT22;23991;52.430;10.586;2023-04-24T00:06:44;15.30;65.60
38183;DHT22;23991;52.430;10.586;2023-04-24T00:09:14;15.30;65.70
38183;DHT22;23991;52.430;10.586;2023-04-24T00:11:41;15.30;65.90
38183;DHT22;23991;52.430;10.586;2023-04-24T00:14:06;15.30;65.40
38183;DHT22;23991;52.430;10.586;2023-04-24T00:16:32;15.20;65.60
38183;DHT22;23991;52.430;10.586;2023-04-24T00:18:57;15.20;65.80
38183;DHT22;23991;52.430;10.586;2023-04-24T00:21:23;15.20;65.90
38183;DHT22;23991;52.430;10.586;2023-04-24T00:23:50;15.20;65.70
38183;DHT22;23991;52.430;10.586;2023-04-24T00:26:16;15.20;65.40
38183;DHT22;23991;52.430;10.586;2023-04-24T00:28:42;15.20;65.30
38183;DHT22;23991;52.430;10.586;2023-04-24T00:31:08;15.20;65.50
38183;DHT22;23991;52.430;10.586;2023-04-24T00:33:33;15.10;65.60
38183;DHT22;23991;52.430;10.586;2023-04-24T00:35:59;15.10;65.60
38183;DHT22;23991;52.430;10.586;2023-04-24T00:38:25;15.10;65.60
38183;DHT22;23991;52.430;10.586;2023-04-24T00:40:50;15.00;65.60
38183;DHT22;23991;52.430;10.586;2023-04-24T00:43:16;15.00;65.70
38183;DHT22;23991;52.430;10.586;2023-04-24T00:45:42;15.00;65.70
38183;DHT22;23991;52.430;10.586;2023-04-24T00:48:09;15.00;65.70
38183;DHT22;23991;52.430;10.586;2023-04-24T00:50:36;14.90;65.40
38183;DHT22;23991;52.430;10.586;2023-04-24T00:53:02;14.90;65.50
38183;DHT22;23991;52.430;10.586;2023-04-24T00:55:28;14.90;65.60
38183;DHT22;23991;52.430;10.586;2023-04-24T00:57:54;14.80;65.70
38183;DHT22;23991;52.430;10.586;2023-04-24T01:00:20;14.80;65.60
38183;DHT22;23991;52.430;10.586;2023-04-24T01:02:46;14.80;65.70
38183;DHT22;23991;52.430;10.586;2023-04-24T01:05:14;14.80;65.80
38183;DHT22;23991;52.430;10.586;2023-04-24T01:07:41;14.80;66.00
38183;DHT22;23991;52.430;10.586;2023-04-24T01:10:09;14.80;66.00
38183;DHT22;23991;52.430;10.586;2023-04-24T01:12:35;14.80;66.10
38183;DHT22;23991;52.430;10.586;2023-04-24T01:15:01;14.80;66.10
38183;DHT22;23991;52.430;10.586;2023-04-24T01:17:26;14.60;66.40
38183;DHT22;23991;52.430;10.586;2023-04-24T01:19:52;14.60;66.60
38183;DHT22;23991;52.430;10.586;2023-04-24T01:22:22;14.60;66.60
38183;DHT22;23991;52.430;10.586;2023-04-24T01:24:47;14.60;66.80
38183;DHT22;23991;52.430;10.586;2023-04-24T01:27:13;14.50;66.80
38183;DHT22;23991;52.430;10.586;2023-04-24T01:29:39;14.40;67.00
38183;DHT22;23991;52.430;10.586;2023-04-24T01:32:05;14.40;67.10
38183;DHT22;23991;52.430;10.586;2023-04-24T01:34:31;14.30;67.30
38183;DHT22;23991;52.430;10.586;2023-04-24T01:36:57;14.30;67.40
38183;DHT22;23991;52.430;10.586;2023-04-24T01:39:23;14.30;67.60
38183;DHT22;23991;52.430;10.586;2023-04-24T01:41:51;14.30;67.60
38183;DHT22;23991;52.430;10.586;2023-04-24T01:44:17;14.30;67.70
38183;DHT22;23991;52.430;10.586;2023-04-24T01:46:43;14.30;67.80
38183;DHT22;23991;52.430;10.586;2023-04-24T01:49:09;14.30;67.70
38183;DHT22;23991;52.430;10.586;2023-04-24T01:51:35;14.30;67.80
38183;DHT22;23991;52.430;10.586;2023-04-24T01:54:01;14.30;67.60
38183;DHT22;23991;52.430;10.586;2023-04-24T01:56:29;14.30;67.80
38183;DHT22;23991;52.430;10.586;2023-04-24T01:58:56;14.20;68.00
38183;DHT22;23991;52.430;10.586;2023-04-24T02:01:24;14.10;68.20
38183;DHT22;23991;52.430;10.586;2023-04-24T02:03:49;14.10;68.20
38183;DHT22;23991;52.430;10.586;2023-04-24T02:06:15;14.10;68.30
38183;DHT22;23991;52.430;10.586;2023-04-24T02:08:41;14.20;68.20
38183;DHT22;23991;52.430;10.586;2023-04-24T02:11:08;14.10;68.30
38183;DHT22;23991;52.430;10.586;2023-04-24T02:13:33;14.10;68.50
38183;DHT22;23991;52.430;10.586;2023-04-24T02:15:59;14.00;68.60
38183;DHT22;23991;52.430;10.586;2023-04-24T02:18:25;14.00;68.50
38183;DHT22;23991;52.430;10.586;2023-04-24T02:20:50;14.00;68.50
38183;DHT22;23991;52.430;10.586;2023-04-24T02:23:16;14.00;68.50
38183;DHT22;23991;52.430;10.586;2023-04-24T02:25:41;13.90;68.80
38183;DHT22;23991;52.430;10.586;2023-04-24T02:28:09;13.90;69.00
38183;DHT22;23991;52.430;10.586;2023-04-24T02:30:35;13.90;69.00
38183;DHT22;23991;52.430;10.586;2023-04-24T02:33:00;13.90;69.10
38183;DHT22;23991;52.430;10.586;2023-04-24T02:35:26;13.90;69.30
38183;DHT22;23991;52.430;10.586;2023-04-24T02:37:51;13.80;69.40
38183;DHT22;23991;52.430;10.586;2023-04-24T02:40:17;13.80;69.50
38183;DHT22;23991;52.430;10.586;2023-04-24T02:42:43;13.80;69.50
38183;DHT22;23991;52.430;10.586;2023-04-24T02:45:08;13.80;69.60
38183;DHT22;23991;52.430;10.586;2023-04-24T02:47:34;13.80;69.50
38183;DHT22;23991;52.430;10.586;2023-04-24T02:50:01;13.80;69.60
38183;DHT22;23991;52.430;10.586;2023-04-24T02:52:26;13.70;69.80
38183;DHT22;23991;52.430;10.586;2023-04-24T02:54:52;13.70;69.70
38183;DHT22;23991;52.430;10.586;2023-04-24T02:57:19;13.70;69.90
38183;DHT22;23991;52.430;10.586;2023-04-24T02:59:44;13.60;70.10
38183;DHT22;23991;52.430;10.586;2023-04-24T03:02:10;13.50;70.10
38183;DHT22;23991;52.430;10.586;2023-04-24T03:04:35;13.60;70.00
38183;DHT22;23991;52.430;10.586;2023-04-24T03:07:01;13.50;70.10
38183;DHT22;23991;52.430;10.586;2023-04-24T03:09:27;13.50;70.20
38183;DHT22;23991;52.430;10.586;2023-04-24T03:11:52;13.50;70.30
38183;DHT22;23991;52.430;10.586;2023-04-24T03:14:18;13.50;70.40
38183;DHT22;23991;52.430;10.586;2023-04-24T03:16:44;13.40;70.40
38183;DHT22;23991;52.430;10.586;2023-04-24T03:19:09;13.50;70.40
38183;DHT22;23991;52.430;10.586;2023-04-24T03:21:35;13.50;70.20
38183;DHT22;23991;52.430;10.586;2023-04-24T03:24:06;13.50;70.20
38183;DHT22;23991;52.430;10.586;2023-04-24T03:26:32;13.40;70.30
38183;DHT22;23991;52.430;10.586;2023-04-24T03:28:57;13.40;70.30
38183;DHT22;23991;52.430;10.586;2023-04-24T03:31:23;13.40;70.40
38183;DHT22;23991;52.430;10.586;2023-04-24T03:33:49;13.40;70.30
38183;DHT22;23991;52.430;10.586;2023-04-24T03:36:14;13.40;70.30
38183;DHT22;23991;52.430;10.586;2023-04-24T03:38:40;13.30;70.30
38183;DHT22;23991;52.430;10.586;2023-04-24T03:41:06;13.30;70.30
38183;DHT22;23991;52.430;10.586;2023-04-24T03:43:31;13.30;70.20
38183;DHT22;23991;52.430;10.586;2023-04-24T03:45:58;13.40;70.20
38183;DHT22;23991;52.430;10.586;2023-04-24T03:48:26;13.30;70.20
38183;DHT22;23991;52.430;10.586;2023-04-24T03:50:52;13.30;70.30
38183;DHT22;23991;52.430;10.586;2023-04-24T03:53:17;13.20;70.50
38183;DHT22;23991;52.430;10.586;2023-04-24T03:55:43;13.20;70.50
38183;DHT22;23991;52.430;10.586;2023-04-24T03:58:08;13.20;70.50
38183;DHT22;23991;52.430;10.586;2023-04-24T04:00:34;13.20;70.40
38183;DHT22;23991;52.430;10.586;2023-04-24T04:03:00;13.20;70.30
38183;DHT22;23991;52.430;10.586;2023-04-24T04:05:26;13.10;70.50
38183;DHT22;23991;52.430;10.586;2023-04-24T04:07:51;13.10;70.50
38183;DHT22;23991;52.430;10.586;2023-04-24T04:10:17;13.10;70.40
38183;DHT22;23991;52.430;10.586;2023-04-24T04:12:42;13.20;70.20
38183;DHT22;23991;52.430;10.586;2023-04-24T04:15:09;13.00;70.00
38183;DHT22;23991;52.430;10.586;2023-04-24T04:17:34;13.00;70.10
38183;DHT22;23991;52.430;10.586;2023-04-24T04:20:00;12.90;70.20
38183;DHT22;23991;52.430;10.586;2023-04-24T04:22:26;12.90;70.10
38183;DHT22;23991;52.430;10.586;2023-04-24T04:24:52;12.90;70.20
38183;DHT22;23991;52.430;10.586;2023-04-24T04:27:18;12.90;70.10
38183;DHT22;23991;52.430;10.586;2023-04-24T04:29:44;13.00;69.80
38183;DHT22;23991;52.430;10.586;2023-04-24T04:32:10;13.10;69.80
38183;DHT22;23991;52.430;10.586;2023-04-24T04:34:35;13.10;69.60
38183;DHT22;23991;52.430;10.586;2023-04-24T04:37:03;13.10;69.50
38183;DHT22;23991;52.430;10.586;2023-04-24T04:39:29;13.20;69.30
38183;DHT22;23991;52.430;10.586;2023-04-24T04:41:55;13.20;69.10
38183;DHT22;23991;52.430;10.586;2023-04-24T04:44:30;13.30;68.90
38183;DHT22;23991;52.430;10.586;2023-04-24T04:46:56;13.30;68.70
38183;DHT22;23991;52.430;10.586;2023-04-24T04:49:22;13.30;68.40
38183;DHT22;23991;52.430;10.586;2023-04-24T04:51:49;13.30;68.20
38183;DHT22;23991;52.430;10.586;2023-04-24T04:54:16;13.40;68.00
38183;DHT22;23991;52.430;10.586;2023-04-24T04:56:41;13.50;67.80
38183;DHT22;23991;52.430;10.586;2023-04-24T04:59:07;13.50;67.50
38183;DHT22;23991;52.430;10.586;2023-04-24T05:01:32;13.60;67.20
38183;DHT22;23991;52.430;10.586;2023-04-24T05:03:58;13.50;67.00
38183;DHT22;23991;52.430;10.586;2023-04-24T05:06:23;13.60;67.10
38183;DHT22;23991;52.430;10.586;2023-04-24T05:08:49;13.60;67.00
38183;DHT22;23991;52.430;10.586;2023-04-24T05:11:15;13.70;66.70
38183;DHT22;23991;52.430;10.586;2023-04-24T05:13:40;13.70;66.70
38183;DHT22;23991;52.430;10.586;2023-04-24T05:16:06;13.80;66.60
38183;DHT22;23991;52.430;10.586;2023-04-24T05:18:32;13.80;66.50
38183;DHT22;23991;52.430;10.586;2023-04-24T05:20:57;13.80;66.40
38183;DHT22;23991;52.430;10.586;2023-04-24T05:23:23;13.90;66.30
38183;DHT22;23991;52.430;10.586;2023-04-24T05:25:48;14.00;66.10
38183;DHT22;23991;52.430;10.586;2023-04-24T05:28:14;14.10;66.20
38183;DHT22;23991;52.430;10.586;2023-04-24T05:30:40;14.20;65.70
38183;DHT22;23991;52.430;10.586;2023-04-24T05:33:06;14.20;65.50
38183;DHT22;23991;52.430;10.586;2023-04-24T05:35:31;14.30;65.30
38183;DHT22;23991;52.430;10.586;2023-04-24T05:37:57;14.30;65.30
38183;DHT22;23991;52.430;10.586;2023-04-24T05:40:22;14.40;65.20
38183;DHT22;23991;52.430;10.586;2023-04-24T05:42:48;14.40;64.90
38183;DHT22;23991;52.430;10.586;2023-04-24T05:45:13;14.40;65.00
38183;DHT22;23991;52.430;10.586;2023-04-24T05:47:42;14.50;64.90
38183;DHT22;23991;52.430;10.586;2023-04-24T05:50:09;14.60;65.10
38183;DHT22;23991;52.430;10.586;2023-04-24T05:52:35;14.50;65.00
38183;DHT22;23991;52.430;10.586;2023-04-24T05:55:00;14.70;64.90
38183;DHT22;23991;52.430;10.586;2023-04-24T05:57:26;14.70;64.60
38183;DHT22;23991;52.430;10.586;2023-04-24T05:59:52;14.80;64.80
38183;DHT22;23991;52.430;10.586;2023-04-24T06:02:18;14.90;64.50
38183;DHT22;23991;52.430;10.586;2023-04-24T06:04:43;15.00;64.50
38183;DHT22;23991;52.430;10.586;2023-04-24T06:07:11;15.00;64.20
38183;DHT22;23991;52.430;10.586;2023-04-24T06:09:36;15.20;63.90
38183;DHT22;23991;52.430;10.586;2023-04-24T06:12:02;15.30;63.20
38183;DHT22;23991;52.430;10.586;2023-04-24T06:14:28;15.30;63.20
38183;DHT22;23991;52.430;10.586;2023-04-24T06:16:53;15.40;62.90
38183;DHT22;23991;52.430;10.586;2023-04-24T06:19:19;15.60;62.70
38183;DHT22;23991;52.430;10.586;2023-04-24T06:21:44;15.70;62.40
38183;DHT22;23991;52.430;10.586;2023-04-24T06:24:10;15.80;61.90
38183;DHT22;23991;52.430;10.586;2023-04-24T06:26:36;15.90;62.20
38183;DHT22;23991;52.430;10.586;2023-04-24T06:29:01;15.80;62.10
38183;DHT22;23991;52.430;10.586;2023-04-24T06:31:27;15.80;62.30
38183;DHT22;23991;52.430;10.586;2023-04-24T06:33:52;15.90;62.00
38183;DHT22;23991;52.430;10.586;2023-04-24T06:36:18;16.00;61.90
38183;DHT22;23991;52.430;10.586;2023-04-24T06:38:43;16.00;61.80
38183;DHT22;23991;52.430;10.586;2023-04-24T06:41:10;16.00;61.10
38183;DHT22;23991;52.430;10.586;2023-04-24T06:43:35;15.90;61.20
38183;DHT22;23991;52.430;10.586;2023-04-24T06:46:01;16.10;61.40
38183;DHT22;23991;52.430;10.586;2023-04-24T06:48:28;16.20;61.20
38183;DHT22;23991;52.430;10.586;2023-04-24T06:50:54;16.30;60.90
38183;DHT22;23991;52.430;10.586;2023-04-24T06:53:19;16.40;61.00
38183;DHT22;23991;52.430;10.586;2023-04-24T06:55:45;16.30;60.10
38183;DHT22;23991;52.430;10.586;2023-04-24T06:58:11;16.40;60.00
38183;DHT22;23991;52.430;10.586;2023-04-24T07:00:37;16.60;59.60
38183;DHT22;23991;52.430;10.586;2023-04-24T07:03:03;16.70;59.30
38183;DHT22;23991;52.430;10.586;2023-04-24T07:05:30;16.80;59.30
38183;DHT22;23991;52.430;10.586;2023-04-24T07:07:56;16.80;59.00
38183;DHT22;23991;52.430;10.586;2023-04-24T07:10:24;16.80;59.10
38183;DHT22;23991;52.430;10.586;2023-04-24T07:12:49;16.90;58.60
38183;DHT22;23991;52.430;10.586;2023-04-24T07:15:15;16.90;58.40
38183;DHT22;23991;52.430;10.586;2023-04-24T07:17:41;17.00;58.10
38183;DHT22;23991;52.430;10.586;2023-04-24T07:20:11;17.20;57.80
38183;DHT22;23991;52.430;10.586;2023-04-24T07:22:40;17.20;57.50
38183;DHT22;23991;52.430;10.586;2023-04-24T07:25:06;17.30;57.40
38183;DHT22;23991;52.430;10.586;2023-04-24T07:27:32;17.40;57.40
38183;DHT22;23991;52.430;10.586;2023-04-24T07:29:57;17.60;57.10
38183;DHT22;23991;52.430;10.586;2023-04-24T07:32:23;17.80;56.10
38183;DHT22;23991;52.430;10.586;2023-04-24T07:34:48;18.00;55.50
38183;DHT22;23991;52.430;10.586;2023-04-24T07:37:14;18.00;55.50
38183;DHT22;23991;52.430;10.586;2023-04-24T07:39:39;18.50;54.40
38183;DHT22;23991;52.430;10.586;2023-04-24T07:42:05;19.20;53.50
38183;DHT22;23991;52.430;10.586;2023-04-24T07:44:31;19.30;51.90
38183;DHT22;23991;52.430;10.586;2023-04-24T07:46:57;19.20;49.50
38183;DHT22;23991;52.430;10.586;2023-04-24T07:49:23;18.90;50.80
38183;DHT22;23991;52.430;10.586;2023-04-24T07:51:49;18.60;51.40
38183;DHT22;23991;52.430;10.586;2023-04-24T07:54:15;18.30;51.80
38183;DHT22;23991;52.430;10.586;2023-04-24T07:56:41;18.40;51.90
38183;DHT22;23991;52.430;10.586;2023-04-24T07:59:08;18.40;51.90
38183;DHT22;23991;52.430;10.586;2023-04-24T08:01:35;18.30;51.80
38183;DHT22;23991;52.430;10.586;2023-04-24T08:04:01;18.30;51.80
38183;DHT22;23991;52.430;10.586;2023-04-24T08:06:27;18.30;51.60
38183;DHT22;23991;52.430;10.586;2023-04-24T08:08:57;18.10;52.30
38183;DHT22;23991;52.430;10.586;2023-04-24T08:11:24;18.00;52.80
38183;DHT22;23991;52.430;10.586;2023-04-24T08:13:49;18.00;53.40
38183;DHT22;23991;52.430;10.586;2023-04-24T08:16:15;18.10;53.80
38183;DHT22;23991;52.430;10.586;2023-04-24T08:18:40;18.00;54.60
38183;DHT22;23991;52.430;10.586;2023-04-24T08:21:06;18.00;53.50
38183;DHT22;23991;52.430;10.586;2023-04-24T08:23:32;17.80;54.10
38183;DHT22;23991;52.430;10.586;2023-04-24T08:25:57;17.90;54.10
38183;DHT22;23991;52.430;10.586;2023-04-24T08:28:23;18.00;53.20
38183;DHT22;23991;52.430;10.586;2023-04-24T08:30:49;18.10;52.80
38183;DHT22;23991;52.430;10.586;2023-04-24T08:33:22;18.00;53.00
38183;DHT22;23991;52.430;10.586;2023-04-24T08:35:48;18.00;53.00
38183;DHT22;23991;52.430;10.586;2023-04-24T08:38:13;18.10;52.10
38183;DHT22;23991;52.430;10.586;2023-04-24T08:40:39;18.10;51.50
38183;DHT22;23991;52.430;10.586;2023-04-24T08:43:08;18.30;52.30
38183;DHT22;23991;52.430;10.586;2023-04-24T08:45:34;18.30;51.50
38183;DHT22;23991;52.430;10.586;2023-04-24T08:48:00;18.30;51.30
38183;DHT22;23991;52.430;10.586;2023-04-24T08:50:28;18.50;51.20
38183;DHT22;23991;52.430;10.586;2023-04-24T08:52:54;18.70;50.10
38183;DHT22;23991;52.430;10.586;2023-04-24T08:55:20;18.80;50.00
38183;DHT22;23991;52.430;10.586;2023-04-24T08:57:51;18.80;49.30
38183;DHT22;23991;52.430;10.586;2023-04-24T09:00:19;19.00;49.50
38183;DHT22;23991;52.430;10.586;2023-04-24T09:02:47;19.10;48.90
38183;DHT22;23991;52.430;10.586;2023-04-24T09:05:17;18.90;50.60
38183;DHT22;23991;52.430;10.586;2023-04-24T09:07:45;19.20;49.70
38183;DHT22;23991;52.430;10.586;2023-04-24T09:10:15;19.40;48.30
38183;DHT22;23991;52.430;10.586;2023-04-24T09:12:41;19.40;47.40
38183;DHT22;23991;52.430;10.586;2023-04-24T09:15:08;19.60;47.60
38183;DHT22;23991;52.430;10.586;2023-04-24T09:17:33;19.40;46.50
38183;DHT22;23991;52.430;10.586;2023-04-24T09:20:00;19.50;45.80
38183;DHT22;23991;52.430;10.586;2023-04-24T09:22:30;19.80;43.70
38183;DHT22;23991;52.430;10.586;2023-04-24T09:25:07;20.10;42.50
38183;DHT22;23991;52.430;10.586;2023-04-24T09:27:33;20.30;43.10
38183;DHT22;23991;52.430;10.586;2023-04-24T09:30:00;20.50;40.90
38183;DHT22;23991;52.430;10.586;2023-04-24T09:32:26;21.00;41.20
38183;DHT22;23991;52.430;10.586;2023-04-24T09:35:10;21.20;37.90
38183;DHT22;23991;52.430;10.586;2023-04-24T09:37:42;21.50;37.60
38183;DHT22;23991;52.430;10.586;2023-04-24T09:40:21;21.70;36.90
38183;DHT22;23991;52.430;10.586;2023-04-24T09:42:56;22.30;36.20
38183;DHT22;23991;52.430;10.586;2023-04-24T09:45:28;22.80;34.30
38183;DHT22;23991;52.430;10.586;2023-04-24T09:48:00;23.50;33.30
38183;DHT22;23991;52.430;10.586;2023-04-24T09:50:25;23.80;33.20
38183;DHT22;23991;52.430;10.586;2023-04-24T09:53:05;24.20;32.50
38183;DHT22;23991;52.430;10.586;2023-04-24T09:55:31;24.30;32.30
38183;DHT22;23991;52.430;10.586;2023-04-24T09:58:01;24.50;32.00
38183;DHT22;23991;52.430;10.586;2023-04-24T10:00:28;24.90;31.90
38183;DHT22;23991;52.430;10.586;2023-04-24T10:02:56;25.10;32.30
38183;DHT22;23991;52.430;10.586;2023-04-24T10:05:28;25.60;32.10
38183;DHT22;23991;52.430;10.586;2023-04-24T10:07:57;25.80;31.00
38183;DHT22;23991;52.430;10.586;2023-04-24T10:10:23;26.00;30.90
38183;DHT22;23991;52.430;10.586;2023-04-24T10:12:49;26.00;29.70
38183;DHT22;23991;52.430;10.586;2023-04-24T10:15:16;25.80;30.00
38183;DHT22;23991;52.430;10.586;2023-04-24T10:17:48;25.10;30.70
38183;DHT22;23991;52.430;10.586;2023-04-24T10:20:18;24.60;30.80
38183;DHT22;23991;52.430;10.586;2023-04-24T10:22:46;24.10;32.10
38183;DHT22;23991;52.430;10.586;2023-04-24T10:25:26;23.70;32.90
38183;DHT22;23991;52.430;10.586;2023-04-24T10:27:53;23.60;33.80
38183;DHT22;23991;52.430;10.586;2023-04-24T10:30:22;23.60;32.40
38183;DHT22;23991;52.430;10.586;2023-04-24T10:32:48;23.60;32.90
38183;DHT22;23991;52.430;10.586;2023-04-24T10:35:15;23.60;32.10
38183;DHT22;23991;52.430;10.586;2023-04-24T10:37:48;23.50;32.10
38183;DHT22;23991;52.430;10.586;2023-04-24T10:40:18;23.10;32.60
38183;DHT22;23991;52.430;10.586;2023-04-24T10:42:48;23.10;32.90
38183;DHT22;23991;52.430;10.586;2023-04-24T10:45:17;23.00;33.10
38183;DHT22;23991;52.430;10.586;2023-04-24T10:47:54;23.20;33.70
38183;DHT22;23991;52.430;10.586;2023-04-24T10:50:21;23.70;32.50
38183;DHT22;23991;52.430;10.586;2023-04-24T10:52:48;24.00;31.30
38183;DHT22;23991;52.430;10.586;2023-04-24T10:55:16;23.80;31.80
38183;DHT22;23991;52.430;10.586;2023-04-24T10:58:02;23.60;31.70
38183;DHT22;23991;52.430;10.586;2023-04-24T11:00:28;23.70;32.20
38183;DHT22;23991;52.430;10.586;2023-04-24T11:02:54;23.30;32.50
38183;DHT22;23991;52.430;10.586;2023-04-24T11:05:21;22.90;33.00
38183;DHT22;23991;52.430;10.586;2023-04-24T11:10:45;22.20;33.20
38183;DHT22;23991;52.430;10.586;2023-04-24T11:13:13;22.00;33.60
38183;DHT22;23991;52.430;10.586;2023-04-24T11:15:41;21.90;34.30
38183;DHT22;23991;52.430;10.586;2023-04-24T11:18:12;21.90;34.80
38183;DHT22;23991;52.430;10.586;2023-04-24T11:20:42;21.90;34.80
38183;DHT22;23991;52.430;10.586;2023-04-24T11:23:08;22.00;34.90
38183;DHT22;23991;52.430;10.586;2023-04-24T11:25:35;22.30;34.60
38183;DHT22;23991;52.430;10.586;2023-04-24T11:28:05;22.50;33.90
38183;DHT22;23991;52.430;10.586;2023-04-24T11:30:32;22.40;33.50
38183;DHT22;23991;52.430;10.586;2023-04-24T11:33:03;22.50;33.70
38183;DHT22;23991;52.430;10.586;2023-04-24T11:35:29;22.50;34.20
38183;DHT22;23991;52.430;10.586;2023-04-24T11:38:00;22.90;33.80
38183;DHT22;23991;52.430;10.586;2023-04-24T11:40:28;23.30;33.40
38183;DHT22;23991;52.430;10.586;2023-04-24T11:42:54;23.40;32.80
38183;DHT22;23991;52.430;10.586;2023-04-24T11:45:26;23.40;32.80
38183;DHT22;23991;52.430;10.586;2023-04-24T11:47:53;23.50;32.30
38183;DHT22;23991;52.430;10.586;2023-04-24T11:50:21;23.30;32.40
38183;DHT22;23991;52.430;10.586;2023-04-24T11:52:48;23.20;32.70
38183;DHT22;23991;52.430;10.586;2023-04-24T11:57:42;23.20;32.30
38183;DHT22;23991;52.430;10.586;2023-04-24T12:00:16;23.20;32.20
38183;DHT22;23991;52.430;10.586;2023-04-24T12:02:42;23.20;32.20
38183;DHT22;23991;52.430;10.586;2023-04-24T12:05:08;23.20;31.80
38183;DHT22;23991;52.430;10.586;2023-04-24T12:07:41;22.80;32.80
38183;DHT22;23991;52.430;10.586;2023-04-24T12:10:10;22.70;33.40
38183;DHT22;23991;52.430;10.586;2023-04-24T12:12:36;22.40;33.20
38183;DHT22;23991;52.430;10.586;2023-04-24T12:15:07;22.10;34.00
38183;DHT22;23991;52.430;10.586;2023-04-24T12:17:34;21.90;34.70
38183;DHT22;23991;52.430;10.586;2023-04-24T12:20:04;21.80;35.20
38183;DHT22;23991;52.430;10.586;2023-04-24T12:22:51;21.70;35.60
38183;DHT22;23991;52.430;10.586;2023-04-24T12:25:23;21.70;35.90
38183;DHT22;23991;52.430;10.586;2023-04-24T12:28:09;21.90;34.90
38183;DHT22;23991;52.430;10.586;2023-04-24T12:30:43;21.80;34.50
38183;DHT22;23991;52.430;10.586;2023-04-24T12:33:10;22.30;34.10
38183;DHT22;23991;52.430;10.586;2023-04-24T12:35:36;22.10;34.80
38183;DHT22;23991;52.430;10.586;2023-04-24T12:38:21;22.00;34.60
38183;DHT22;23991;52.430;10.586;2023-04-24T12:40:47;21.90;35.00
38183;DHT22;23991;52.430;10.586;2023-04-24T12:43:16;21.70;35.80
38183;DHT22;23991;52.430;10.586;2023-04-24T12:45:42;21.80;35.80
38183;DHT22;23991;52.430;10.586;2023-04-24T12:48:07;21.80;35.40
38183;DHT22;23991;52.430;10.586;2023-04-24T12:50:33;21.60;35.80
38183;DHT22;23991;52.430;10.586;2023-04-24T12:52:59;21.30;37.90
38183;DHT22;23991;52.430;10.586;2023-04-24T12:55:25;21.20;39.50
38183;DHT22;23991;52.430;10.586;2023-04-24T12:57:50;21.30;38.90
38183;DHT22;23991;52.430;10.586;2023-04-24T13:00:17;21.50;38.10
38183;DHT22;23991;52.430;10.586;2023-04-24T13:02:46;21.80;37.50
38183;DHT22;23991;52.430;10.586;2023-04-24T13:05:12;21.80;36.70
38183;DHT22;23991;52.430;10.586;2023-04-24T13:07:39;21.70;36.90
38183;DHT22;23991;52.430;10.586;2023-04-24T13:10:05;21.70;36.10
38183;DHT22;23991;52.430;10.586;2023-04-24T13:12:31;21.30;36.30
38183;DHT22;23991;52.430;10.586;2023-04-24T13:14:57;21.30;36.40
38183;DHT22;23991;52.430;10.586;2023-04-24T13:17:24;21.30;36.20
38183;DHT22;23991;52.430;10.586;2023-04-24T13:19:50;21.00;36.90
38183;DHT22;23991;52.430;10.586;2023-04-24T13:22:17;21.20;37.30
38183;DHT22;23991;52.430;10.586;2023-04-24T13:24:44;21.20;36.80
38183;DHT22;23991;52.430;10.586;2023-04-24T13:27:10;21.30;37.50
38183;DHT22;23991;52.430;10.586;2023-04-24T13:29:36;21.30;38.20
38183;DHT22;23991;52.430;10.586;2023-04-24T13:32:02;21.60;38.60
38183;DHT22;23991;52.430;10.586;2023-04-24T13:34:27;21.30;38.40
38183;DHT22;23991;52.430;10.586;2023-04-24T13:36:54;21.30;39.30
38183;DHT22;23991;52.430;10.586;2023-04-24T13:39:21;21.40;38.90
38183;DHT22;23991;52.430;10.586;2023-04-24T13:41:46;21.40;37.40
38183;DHT22;23991;52.430;10.586;2023-04-24T13:44:14;21.70;36.90
38183;DHT22;23991;52.430;10.586;2023-04-24T13:46:40;21.80;36.60
38183;DHT22;23991;52.430;10.586;2023-04-24T13:49:05;22.10;36.50
38183;DHT22;23991;52.430;10.586;2023-04-24T13:51:32;22.40;36.10
38183;DHT22;23991;52.430;10.586;2023-04-24T13:53:57;22.80;35.90
38183;DHT22;23991;52.430;10.586;2023-04-24T13:56:23;23.20;35.60
38183;DHT22;23991;52.430;10.586;2023-04-24T13:58:48;23.30;35.30
38183;DHT22;23991;52.430;10.586;2023-04-24T14:01:14;23.10;35.40
38183;DHT22;23991;52.430;10.586;2023-04-24T14:03:43;22.80;35.30
38183;DHT22;23991;52.430;10.586;2023-04-24T14:06:08;22.80;35.40
38183;DHT22;23991;52.430;10.586;2023-04-24T14:08:34;22.70;34.70
38183;DHT22;23991;52.430;10.586;2023-04-24T14:11:00;22.40;35.20
38183;DHT22;23991;52.430;10.586;2023-04-24T14:13:26;22.20;35.90
38183;DHT22;23991;52.430;10.586;2023-04-24T14:15:51;21.70;36.40
38183;DHT22;23991;52.430;10.586;2023-04-24T14:18:18;21.40;37.00
38183;DHT22;23991;52.430;10.586;2023-04-24T14:20:44;21.00;38.00
38183;DHT22;23991;52.430;10.586;2023-04-24T14:23:09;20.60;39.20
38183;DHT22;23991;52.430;10.586;2023-04-24T14:25:35;20.70;39.50
38183;DHT22;23991;52.430;10.586;2023-04-24T14:28:00;20.50;39.40
38183;DHT22;23991;52.430;10.586;2023-04-24T14:30:26;20.70;39.40
38183;DHT22;23991;52.430;10.586;2023-04-24T14:32:51;20.60;39.20
38183;DHT22;23991;52.430;10.586;2023-04-24T14:35:17;20.50;38.80
38183;DHT22;23991;52.430;10.586;2023-04-24T14:37:43;20.20;39.20
38183;DHT22;23991;52.430;10.586;2023-04-24T14:40:09;20.30;39.10
38183;DHT22;23991;52.430;10.586;2023-04-24T14:42:34;20.30;39.40
38183;DHT22;23991;52.430;10.586;2023-04-24T14:45:01;20.30;39.20
38183;DHT22;23991;52.430;10.586;2023-04-24T14:47:26;19.70;40.50
38183;DHT22;23991;52.430;10.586;2023-04-24T14:49:53;19.60;40.70
38183;DHT22;23991;52.430;10.586;2023-04-24T14:52:18;19.40;40.50
38183;DHT22;23991;52.430;10.586;2023-04-24T14:54:44;19.10;41.40
38183;DHT22;23991;52.430;10.586;2023-04-24T14:57:09;18.70;42.50
38183;DHT22;23991;52.430;10.586;2023-04-24T14:59:35;18.60;43.00
38183;DHT22;23991;52.430;10.586;2023-04-24T15:02:01;18.40;43.30
38183;DHT22;23991;52.430;10.586;2023-04-24T15:04:27;18.10;44.20
38183;DHT22;23991;52.430;10.586;2023-04-24T15:06:54;17.90;44.30
38183;DHT22;23991;52.430;10.586;2023-04-24T15:09:23;18.00;44.50
38183;DHT22;23991;52.430;10.586;2023-04-24T15:11:50;17.90;44.80
38183;DHT22;23991;52.430;10.586;2023-04-24T15:14:16;17.80;44.40
38183;DHT22;23991;52.430;10.586;2023-04-24T15:16:42;17.80;45.20
38183;DHT22;23991;52.430;10.586;2023-04-24T15:19:08;17.90;45.10